KCRS

C David Campbell Field-Corsicana Municipal Airport

Corsicana, Texas, USA
METAR KCRS 141253Z AUTO 19010KT 9SM BKN022 26/22 A3000 RMK AO2 SLP154 T02560222
Observed Flight Rules
Aug-14 @ 12:53 UTC (49 minutes ago) Marginal Visual Flight Rules
Wind Visibility Clouds
190° at 10 knots 9 miles
  • Broken at 2,200' AGL
Temperatures Readings
Current 26°C / 79°F
Dewpoint 22°C / 72°F
Humidity 79%
Altimeter 30" Hg
Pressure 1015.4 hPa
Elevation 133
METAR KCRS 141253Z AUTO 19010KT 9SM BKN022 26/22 A3000 RMK AO2 SLP154 T02560222
Observed Flight Rules
Aug-14 @ 12:53 UTC
(49 minutes ago)
MVFR
Wind Visibility
190° at 10 knots 9 miles
Clouds
  • Broken at 2,200' AGL
Temperature Dewpoint
26°C / 79°F 22°C / 72°F
Humidity Altimeter Pressure
79% 30" Hg 1015.4 hPa